createdAt,value
2023-02-11T00:01:43.670Z,26.17
2023-02-11T00:03:46.833Z,25.20
2023-02-11T00:05:58.542Z,25.00
2023-02-11T00:08:01.550Z,26.27
2023-02-11T00:10:06.472Z,26.47
2023-02-11T00:12:09.466Z,25.83
2023-02-11T00:14:13.176Z,25.60
2023-02-11T00:16:18.928Z,27.27
2023-02-11T00:18:24.248Z,26.73
2023-02-11T00:20:27.212Z,27.40
2023-02-11T00:22:30.131Z,27.93
2023-02-11T00:24:33.211Z,28.03
2023-02-11T00:26:37.147Z,28.60
2023-02-11T00:28:40.168Z,27.53
2023-02-11T00:30:43.274Z,27.53
2023-02-11T00:32:46.285Z,27.73
2023-02-11T00:34:53.273Z,27.73
2023-02-11T00:36:56.179Z,28.77
2023-02-11T00:39:01.568Z,28.03
2023-02-11T00:41:04.912Z,28.80
2023-02-11T00:43:07.873Z,29.07
2023-02-11T00:45:11.035Z,28.03
2023-02-11T00:47:14.129Z,28.37
2023-02-11T00:49:17.205Z,29.07
2023-02-11T00:51:21.735Z,28.27
2023-02-11T00:53:24.954Z,29.40
2023-02-11T00:55:28.064Z,29.20
2023-02-11T00:57:32.083Z,29.10
2023-02-11T00:59:35.071Z,27.53
2023-02-11T01:01:38.072Z,27.43
2023-02-11T01:03:41.418Z,27.43
2023-02-11T01:05:44.425Z,26.57
2023-02-11T01:07:48.907Z,27.47
2023-02-11T01:09:51.910Z,26.53
2023-02-11T01:11:54.910Z,30.17
2023-02-11T01:13:57.912Z,28.70
2023-02-11T01:16:01.334Z,27.30
2023-02-11T01:18:06.224Z,27.17
2023-02-11T01:20:14.808Z,27.57
2023-02-11T01:22:17.731Z,26.80
2023-02-11T01:24:22.158Z,28.53
2023-02-11T01:26:25.232Z,28.37
2023-02-11T01:28:30.939Z,28.57
2023-02-11T01:30:35.759Z,29.87
2023-02-11T01:32:39.508Z,29.57
2023-02-11T01:34:44.248Z,27.90
2023-02-11T01:36:47.177Z,28.37
2023-02-11T01:38:50.695Z,31.27
2023-02-11T01:40:57.331Z,30.80
2023-02-11T01:43:00.781Z,31.33
2023-02-11T01:45:44.853Z,30.27
2023-02-11T01:47:48.510Z,31.20
2023-02-11T01:49:56.750Z,32.47
2023-02-11T01:52:02.945Z,30.07
2023-02-11T01:54:25.615Z,31.60
2023-02-11T01:56:49.793Z,30.90
2023-02-11T01:58:54.357Z,32.83
2023-02-11T02:00:58.833Z,31.70
2023-02-11T02:03:06.018Z,32.37
2023-02-11T02:05:15.795Z,31.97
2023-02-11T02:07:26.114Z,33.83
2023-02-11T02:09:35.448Z,35.03
2023-02-11T02:11:39.958Z,32.50
2023-02-11T02:13:42.938Z,34.27
2023-02-11T02:15:51.882Z,33.80
2023-02-11T02:18:02.439Z,34.90
2023-02-11T02:20:42.966Z,33.30
2023-02-11T02:23:22.638Z,34.00
2023-02-11T02:26:01.311Z,33.13
2023-02-11T02:28:23.429Z,33.90
2023-02-11T02:31:11.385Z,33.93
2023-02-11T02:33:30.609Z,33.23
2023-02-11T02:35:42.482Z,35.10
2023-02-11T02:37:52.092Z,34.50
2023-02-11T02:39:58.606Z,35.43
2023-02-11T02:42:01.898Z,34.53
2023-02-11T02:44:05.049Z,36.10
2023-02-11T02:46:16.274Z,36.27
2023-02-11T02:48:29.276Z,35.17
2023-02-11T02:50:36.244Z,36.97
2023-02-11T02:52:47.210Z,35.27
2023-02-11T02:55:08.625Z,36.53
2023-02-11T02:57:25.437Z,35.10
2023-02-11T02:59:39.800Z,36.67
2023-02-11T03:01:51.599Z,34.63
2023-02-11T03:04:04.527Z,35.57
2023-02-11T03:06:12.970Z,35.63
2023-02-11T03:08:19.516Z,36.10
2023-02-11T03:10:27.433Z,38.10
2023-02-11T03:12:32.559Z,36.43
2023-02-11T03:14:37.544Z,35.93
2023-02-11T03:16:41.130Z,37.83
2023-02-11T03:18:48.970Z,37.60
2023-02-11T03:20:55.399Z,36.97
2023-02-11T03:23:03.164Z,35.93
2023-02-11T03:25:07.330Z,37.77
2023-02-11T03:27:16.546Z,38.67
2023-02-11T03:29:29.263Z,36.27
2023-02-11T03:31:37.942Z,34.97
2023-02-11T03:33:48.013Z,37.57
2023-02-11T03:35:57.247Z,37.23
2023-02-11T03:38:05.542Z,36.83
2023-02-11T03:40:11.639Z,35.53
2023-02-11T03:42:17.183Z,36.17
2023-02-11T03:44:21.882Z,36.23
2023-02-11T03:46:29.663Z,35.30
2023-02-11T03:48:35.966Z,35.33
2023-02-11T03:50:41.316Z,38.67
2023-02-11T03:52:48.060Z,35.93
2023-02-11T03:54:56.736Z,37.50
2023-02-11T03:57:02.907Z,37.53
2023-02-11T03:59:05.796Z,35.03
2023-02-11T04:01:09.805Z,35.40
2023-02-11T04:03:13.669Z,37.43
2023-02-11T04:05:17.739Z,37.40
2023-02-11T04:07:20.573Z,38.27
2023-02-11T04:09:24.944Z,36.47
2023-02-11T04:11:28.273Z,35.83
2023-02-11T04:13:31.352Z,36.73
2023-02-11T04:15:34.369Z,36.20
2023-02-11T04:17:37.973Z,35.60
2023-02-11T04:19:40.950Z,37.77
2023-02-11T04:21:43.875Z,34.83
2023-02-11T04:23:46.856Z,33.00
2023-02-11T04:25:52.181Z,32.30
2023-02-11T04:27:56.690Z,30.57
2023-02-11T04:30:00.025Z,29.63
2023-02-11T04:32:02.994Z,29.60
2023-02-11T04:34:06.184Z,29.90
2023-02-11T04:36:10.682Z,30.53
2023-02-11T04:38:13.698Z,28.90
2023-02-11T04:40:16.924Z,31.37
2023-02-11T04:42:21.308Z,34.80
2023-02-11T04:44:24.517Z,34.70
2023-02-11T04:46:27.570Z,39.10
2023-02-11T04:48:30.530Z,39.90
2023-02-11T04:50:33.809Z,39.30
2023-02-11T04:52:36.702Z,36.40
2023-02-11T04:54:39.844Z,40.13
2023-02-11T04:56:42.859Z,40.70
2023-02-11T04:58:47.269Z,41.03
2023-02-11T05:00:50.568Z,41.27
2023-02-11T05:02:53.582Z,40.30
2023-02-11T05:04:56.592Z,40.60
2023-02-11T05:06:59.564Z,40.63
2023-02-11T05:09:02.474Z,41.97
2023-02-11T05:11:05.702Z,41.10
2023-02-11T05:13:08.517Z,41.27
2023-02-11T05:15:12.836Z,42.17
2023-02-11T05:17:16.148Z,42.00
2023-02-11T05:19:19.469Z,41.20
2023-02-11T05:21:22.397Z,41.47
2023-02-11T05:23:25.441Z,41.20
2023-02-11T05:25:28.366Z,39.40
2023-02-11T05:27:31.267Z,42.03
2023-02-11T05:29:34.147Z,40.90
2023-02-11T05:31:38.480Z,38.57
2023-02-11T05:33:41.865Z,41.37
2023-02-11T05:35:44.777Z,40.47
2023-02-11T05:37:47.675Z,42.27
2023-02-11T05:39:50.782Z,42.77
2023-02-11T05:41:53.919Z,43.73
2023-02-11T05:43:56.808Z,43.77
2023-02-11T05:45:59.800Z,42.13
2023-02-11T05:48:04.205Z,43.10
2023-02-11T05:50:07.750Z,45.13
2023-02-11T05:52:10.851Z,44.47
2023-02-11T05:54:13.844Z,44.47
2023-02-11T05:56:16.896Z,43.87
2023-02-11T05:58:19.944Z,43.27
2023-02-11T06:00:23.228Z,43.67
2023-02-11T06:02:28.495Z,44.00
2023-02-11T06:04:32.839Z,42.80
2023-02-11T06:06:35.855Z,45.17
2023-02-11T06:08:39.470Z,45.87
2023-02-11T06:10:43.086Z,44.83
2023-02-11T06:12:46.098Z,43.13
2023-02-11T06:14:49.059Z,45.80
2023-02-11T06:16:52.071Z,43.87
2023-02-11T06:18:54.951Z,44.57
2023-02-11T06:20:59.401Z,45.83
2023-02-11T06:23:02.342Z,45.97
2023-02-11T06:25:06.088Z,46.27
2023-02-11T06:27:09.033Z,44.30
2023-02-11T06:29:12.946Z,42.00
2023-02-11T06:31:17.048Z,44.70
2023-02-11T06:33:20.058Z,43.23
2023-02-11T06:35:23.020Z,43.53
2023-02-11T06:37:27.372Z,43.33
2023-02-11T06:39:30.472Z,44.23
2023-02-11T06:41:33.670Z,42.83
2023-02-11T06:43:36.674Z,44.60
2023-02-11T06:45:39.656Z,43.60
2023-02-11T06:47:42.956Z,42.53
2023-02-11T06:49:46.762Z,45.00
2023-02-11T06:51:49.607Z,44.20
2023-02-11T06:53:54.599Z,45.20
2023-02-11T06:55:57.552Z,46.47
2023-02-11T06:58:00.517Z,44.53
2023-02-11T07:00:03.948Z,45.27
2023-02-11T07:02:07.656Z,46.40
2023-02-11T07:04:10.745Z,44.07
2023-02-11T07:06:15.395Z,44.10
2023-02-11T07:08:18.347Z,43.57
2023-02-11T07:10:22.666Z,44.07
2023-02-11T07:12:25.729Z,43.80
2023-02-11T07:14:28.618Z,43.80
2023-02-11T07:16:31.988Z,44.73
2023-02-11T07:18:35.124Z,43.03
2023-02-11T07:20:38.665Z,41.67
2023-02-11T07:22:41.639Z,41.60
2023-02-11T07:24:44.777Z,41.83
2023-02-11T07:26:49.215Z,43.57
2023-02-11T07:28:52.789Z,42.03
2023-02-11T07:30:58.825Z,42.87
2023-02-11T07:33:01.782Z,40.13
2023-02-11T07:35:05.303Z,39.93
2023-02-11T07:37:08.346Z,40.13
2023-02-11T07:39:13.597Z,40.27
2023-02-11T07:41:19.654Z,38.77
2023-02-11T07:43:24.320Z,38.80
2023-02-11T07:45:27.367Z,40.37
2023-02-11T07:47:30.311Z,39.30
2023-02-11T07:49:33.195Z,39.80
2023-02-11T07:51:36.163Z,40.20
2023-02-11T07:53:39.308Z,37.60
2023-02-11T07:55:45.036Z,37.90
2023-02-11T07:57:47.909Z,37.80
2023-02-11T07:59:52.167Z,36.20
2023-02-11T08:01:55.197Z,37.87
2023-02-11T08:03:59.611Z,37.17
2023-02-11T08:06:05.139Z,35.63
2023-02-11T08:08:08.108Z,35.83
2023-02-11T08:10:12.409Z,35.87
2023-02-11T08:12:15.300Z,35.70
2023-02-11T08:14:18.230Z,34.77
2023-02-11T08:16:24.726Z,36.10
2023-02-11T08:18:27.899Z,35.67
2023-02-11T08:20:30.926Z,35.30
2023-02-11T08:22:35.178Z,36.17
2023-02-11T08:24:38.152Z,34.90
2023-02-11T08:26:41.443Z,35.30
2023-02-11T08:28:46.365Z,33.73
2023-02-11T08:30:49.648Z,35.40
2023-02-11T08:32:56.948Z,35.47
2023-02-11T08:34:59.934Z,33.63
2023-02-11T08:37:03.007Z,35.70
2023-02-11T08:39:18.730Z,33.87
2023-02-11T08:41:22.761Z,33.07
2023-02-11T08:43:25.681Z,34.30
2023-02-11T08:45:28.844Z,32.23
2023-02-11T08:47:32.426Z,32.67
2023-02-11T08:49:37.427Z,33.00
2023-02-11T08:51:40.744Z,32.53
2023-02-11T08:53:43.668Z,30.83
2023-02-11T08:55:53.637Z,32.10
2023-02-11T08:57:56.712Z,33.33
2023-02-11T09:00:00.893Z,33.53
2023-02-11T09:02:06.210Z,33.13
2023-02-11T09:04:11.050Z,31.73
2023-02-11T09:06:17.586Z,36.07
2023-02-11T09:08:22.182Z,33.00
2023-02-11T09:10:28.164Z,32.63
2023-02-11T09:12:31.191Z,33.43
2023-02-11T09:14:34.110Z,31.60
2023-02-11T09:16:38.237Z,34.60
2023-02-11T09:18:41.321Z,32.30
2023-02-11T09:20:44.491Z,35.30
2023-02-11T09:22:49.321Z,32.90
2023-02-11T09:24:52.233Z,31.73
2023-02-11T09:26:55.085Z,32.13
2023-02-11T09:29:00.495Z,31.83
2023-02-11T09:31:06.722Z,32.27
2023-02-11T09:35:26.563Z,33.90
2023-02-11T09:37:29.619Z,35.90
2023-02-11T09:39:33.988Z,31.90
2023-02-11T09:41:44.430Z,30.97
2023-02-11T09:43:49.177Z,32.23
2023-02-11T09:45:54.952Z,32.30
2023-02-11T09:48:00.470Z,33.50
2023-02-11T09:50:07.005Z,33.43
2023-02-11T09:52:20.137Z,32.10
2023-02-11T09:54:30.502Z,36.97
2023-02-11T09:56:35.022Z,31.10
2023-02-11T09:58:41.043Z,31.83
2023-02-11T10:00:47.927Z,32.07
2023-02-11T10:03:13.460Z,32.40
2023-02-11T10:05:27.697Z,31.67
2023-02-11T10:07:41.684Z,30.90
2023-02-11T10:09:55.492Z,31.90
2023-02-11T10:12:12.552Z,31.67
2023-02-11T10:14:29.046Z,33.13
2023-02-11T10:16:52.474Z,32.47
2023-02-11T10:19:13.822Z,32.10
2023-02-11T10:21:25.647Z,30.73
2023-02-11T10:23:34.457Z,30.63
2023-02-11T10:25:40.019Z,31.20
2023-02-11T10:27:50.170Z,32.13
2023-02-11T10:29:57.773Z,30.83
2023-02-11T10:32:02.260Z,31.57
2023-02-11T10:34:07.256Z,31.60
2023-02-11T10:36:13.306Z,32.33
2023-02-11T10:38:16.353Z,31.77
2023-02-11T10:40:21.963Z,32.67
2023-02-11T10:42:26.918Z,32.80
2023-02-11T10:44:34.646Z,31.63
2023-02-11T10:46:40.104Z,30.93
2023-02-11T10:48:46.414Z,31.07
2023-02-11T10:50:49.699Z,32.33
2023-02-11T10:52:53.027Z,32.10
2023-02-11T10:55:04.594Z,31.03
2023-02-11T10:57:08.549Z,31.67
2023-02-11T10:59:21.148Z,29.33
2023-02-11T11:01:39.613Z,30.67
2023-02-11T11:03:49.298Z,30.73
2023-02-11T11:05:58.216Z,31.93
2023-02-11T11:08:04.936Z,30.17
2023-02-11T11:10:26.263Z,29.67
2023-02-11T11:12:32.629Z,31.00
2023-02-11T11:14:35.572Z,30.67
2023-02-11T11:16:56.946Z,29.87
2023-02-11T11:19:21.351Z,31.50
2023-02-11T11:21:26.136Z,31.13
2023-02-11T11:23:32.684Z,31.67
2023-02-11T11:25:45.883Z,29.37
2023-02-11T11:27:50.604Z,29.20
2023-02-11T11:29:57.578Z,30.27
2023-02-11T11:32:05.330Z,30.87
2023-02-11T11:34:25.335Z,32.07
2023-02-11T11:36:36.105Z,29.23
2023-02-11T11:38:45.689Z,29.80
2023-02-11T11:41:22.338Z,31.03
2023-02-11T11:43:25.199Z,29.93
2023-02-11T11:45:28.673Z,31.47
2023-02-11T11:47:38.928Z,31.93
2023-02-11T11:49:49.135Z,31.53
2023-02-11T11:52:01.572Z,32.97
2023-02-11T11:54:10.072Z,35.00
2023-02-11T11:56:16.273Z,32.17
2023-02-11T11:58:22.076Z,32.73
2023-02-11T12:00:32.159Z,31.90
2023-02-11T12:03:05.470Z,35.73
2023-02-11T12:05:12.789Z,32.17
2023-02-11T12:07:31.082Z,30.40
2023-02-11T12:09:45.401Z,30.90
2023-02-11T12:12:17.857Z,31.80
2023-02-11T12:14:30.022Z,30.87
2023-02-11T12:16:42.167Z,31.80
2023-02-11T12:19:14.083Z,30.17
2023-02-11T12:21:29.324Z,31.10
2023-02-11T12:23:46.153Z,29.80
2023-02-11T12:25:58.234Z,29.37
2023-02-11T12:28:14.061Z,29.37
2023-02-11T12:30:35.856Z,30.00
2023-02-11T12:32:46.068Z,29.33
2023-02-11T12:35:08.197Z,28.57
2023-02-11T12:37:25.680Z,29.17
2023-02-11T12:39:41.162Z,27.80
2023-02-11T12:42:13.734Z,28.03
2023-02-11T12:44:26.482Z,26.00
2023-02-11T12:46:37.016Z,27.40
2023-02-11T12:49:01.201Z,27.07
2023-02-11T12:51:19.605Z,24.90
2023-02-11T12:53:40.462Z,24.20
2023-02-11T12:55:46.854Z,22.03
2023-02-11T12:57:52.365Z,22.03
2023-02-11T13:00:01.687Z,18.30
2023-02-11T13:02:15.507Z,17.60
2023-02-11T13:04:24.644Z,17.93
2023-02-11T13:06:35.532Z,16.50
2023-02-11T13:08:43.282Z,17.10
2023-02-11T13:10:50.212Z,18.20
2023-02-11T13:13:12.917Z,18.10
2023-02-11T13:15:16.591Z,17.00
2023-02-11T13:17:41.574Z,16.47
2023-02-11T13:19:49.480Z,16.60
2023-02-11T13:22:12.126Z,15.60
2023-02-11T13:24:23.508Z,15.30
2023-02-11T13:26:32.692Z,16.33
2023-02-11T13:28:44.697Z,14.90
2023-02-11T13:30:52.213Z,16.10
2023-02-11T13:33:22.459Z,16.13
2023-02-11T13:35:29.747Z,15.67
2023-02-11T13:37:38.731Z,15.80
2023-02-11T13:39:41.702Z,15.13
2023-02-11T13:41:51.487Z,14.27
2023-02-11T13:44:03.800Z,14.63
2023-02-11T13:46:09.937Z,15.33
2023-02-11T13:48:19.044Z,15.40
2023-02-11T13:50:25.646Z,15.93
2023-02-11T13:52:31.455Z,15.33
2023-02-11T13:54:38.680Z,15.33
2023-02-11T13:56:44.261Z,15.23
2023-02-11T13:58:51.026Z,14.53
2023-02-11T14:00:54.468Z,14.20
2023-02-11T14:03:42.587Z,14.43
2023-02-11T14:06:29.627Z,14.93
2023-02-11T14:08:50.036Z,14.43
2023-02-11T14:10:55.547Z,15.23
2023-02-11T14:13:07.806Z,14.47
2023-02-11T14:15:24.481Z,14.30
2023-02-11T14:17:34.961Z,14.07
2023-02-11T14:19:40.826Z,14.80
2023-02-11T14:21:45.500Z,14.17
2023-02-11T14:23:48.577Z,15.00
2023-02-11T14:26:05.939Z,15.13
2023-02-11T14:28:16.797Z,15.07
2023-02-11T14:30:31.827Z,14.73
2023-02-11T14:32:45.548Z,15.63
2023-02-11T14:34:57.539Z,15.13
2023-02-11T14:37:12.914Z,16.97
2023-02-11T14:39:27.403Z,15.23
2023-02-11T14:41:36.512Z,14.37
2023-02-11T14:43:42.815Z,15.57
2023-02-11T14:45:49.140Z,15.73
2023-02-11T14:47:57.084Z,15.53
2023-02-11T14:49:59.974Z,15.73
2023-02-11T14:52:16.964Z,14.90
2023-02-11T14:54:24.335Z,15.23
2023-02-11T14:56:30.943Z,15.03
2023-02-11T14:58:35.660Z,20.83
2023-02-11T15:00:47.687Z,14.90
2023-02-11T15:02:50.576Z,14.93
2023-02-11T15:04:55.104Z,14.37
2023-02-11T15:07:01.304Z,14.37
2023-02-11T15:09:08.636Z,14.27
2023-02-11T15:11:16.994Z,14.27
2023-02-11T15:13:22.522Z,14.03
2023-02-11T15:15:27.030Z,19.10
2023-02-11T15:17:32.975Z,15.77
2023-02-11T15:19:39.353Z,15.17
2023-02-11T15:21:46.888Z,14.83
2023-02-11T15:23:58.545Z,14.90
2023-02-11T15:26:03.167Z,14.27
2023-02-11T15:28:21.225Z,14.53
2023-02-11T15:30:32.212Z,17.00
2023-02-11T15:32:36.680Z,14.20
2023-02-11T15:34:40.231Z,14.70
2023-02-11T15:36:43.666Z,14.40
2023-02-11T15:38:46.674Z,15.13
2023-02-11T15:40:56.342Z,15.07
2023-02-11T15:43:02.711Z,14.57
2023-02-11T15:45:11.684Z,14.93
2023-02-11T15:47:20.622Z,14.87
2023-02-11T15:49:24.925Z,16.47
2023-02-11T15:51:32.882Z,16.07
2023-02-11T15:53:40.939Z,16.03
2023-02-11T15:55:43.736Z,16.27
2023-02-11T15:57:50.322Z,16.57
2023-02-11T15:59:54.827Z,15.53
2023-02-11T16:01:59.930Z,16.37
2023-02-11T16:04:05.533Z,15.67
2023-02-11T16:06:22.931Z,15.77
2023-02-11T16:08:29.311Z,17.43
2023-02-11T16:10:34.287Z,17.40
2023-02-11T16:12:37.311Z,17.13
2023-02-11T16:14:40.519Z,19.20
2023-02-11T16:16:49.640Z,18.43
2023-02-11T16:19:04.967Z,19.80
2023-02-11T16:21:17.092Z,20.27
2023-02-11T16:23:24.692Z,18.87
2023-02-11T16:25:27.669Z,18.90
2023-02-11T16:27:38.840Z,20.03
2023-02-11T16:29:46.341Z,19.27
2023-02-11T16:31:50.278Z,19.70
2023-02-11T16:33:53.414Z,22.27
2023-02-11T16:35:56.285Z,21.30
2023-02-11T16:38:00.737Z,20.40
2023-02-11T16:40:03.621Z,23.40
2023-02-11T16:42:07.880Z,32.13
2023-02-11T16:44:11.026Z,21.60
2023-02-11T16:46:16.811Z,23.13
2023-02-11T16:48:21.173Z,21.10
2023-02-11T16:50:26.481Z,22.40
2023-02-11T16:52:31.421Z,24.13
2023-02-11T16:54:38.156Z,24.77
2023-02-11T16:56:41.113Z,24.93
2023-02-11T16:58:44.162Z,24.93
2023-02-11T17:00:48.856Z,25.67
2023-02-11T17:02:52.117Z,23.87
2023-02-11T17:04:56.397Z,25.63
2023-02-11T17:06:59.486Z,33.13
2023-02-11T17:09:02.532Z,22.50
2023-02-11T17:11:07.086Z,24.30
2023-02-11T17:13:10.671Z,24.27
2023-02-11T17:15:13.579Z,24.37
2023-02-11T17:17:17.473Z,28.57
2023-02-11T17:19:21.882Z,24.53
2023-02-11T17:21:29.862Z,25.33
2023-02-11T17:23:33.170Z,25.17
2023-02-11T17:25:37.250Z,24.53
2023-02-11T17:27:41.708Z,23.70
2023-02-11T17:29:44.580Z,25.23
2023-02-11T17:31:47.709Z,24.13
2023-02-11T17:33:50.793Z,23.87
2023-02-11T17:35:56.937Z,24.87
2023-02-11T17:38:01.310Z,24.50
2023-02-11T17:40:04.408Z,24.20
2023-02-11T17:42:08.679Z,25.20
2023-02-11T17:44:14.005Z,25.70
2023-02-11T17:46:17.478Z,28.53
2023-02-11T17:48:20.825Z,24.27
2023-02-11T17:50:23.751Z,26.60
2023-02-11T17:52:28.100Z,26.60
2023-02-11T17:54:34.561Z,25.37
2023-02-11T17:56:37.923Z,24.63
2023-02-11T17:58:41.688Z,24.13
2023-02-11T18:00:46.583Z,26.90
2023-02-11T18:02:50.097Z,25.73
2023-02-11T18:04:57.469Z,25.80
2023-02-11T18:07:00.423Z,33.47
2023-02-11T18:09:04.412Z,25.77
2023-02-11T18:11:13.104Z,24.60
2023-02-11T18:13:18.218Z,23.53
2023-02-11T18:15:21.049Z,24.03
2023-02-11T18:17:25.270Z,24.77
2023-02-11T18:19:30.446Z,25.80
2023-02-11T18:21:33.957Z,25.00
2023-02-11T18:23:36.982Z,24.93
2023-02-11T18:25:44.272Z,27.37
2023-02-11T18:27:47.307Z,25.20
2023-02-11T18:29:50.490Z,25.97
2023-02-11T18:31:57.616Z,25.33
2023-02-11T18:34:01.837Z,22.83
2023-02-11T18:36:06.955Z,24.73
2023-02-11T18:38:09.781Z,32.57
2023-02-11T18:40:14.011Z,25.93
2023-02-11T18:42:16.855Z,27.30
2023-02-11T18:44:22.257Z,27.77
2023-02-11T18:46:25.151Z,24.93
2023-02-11T18:48:28.400Z,25.70
2023-02-11T18:50:32.806Z,23.77
2023-02-11T18:52:38.336Z,24.37
2023-02-11T18:54:41.090Z,24.13
2023-02-11T18:56:44.212Z,24.10
2023-02-11T18:58:47.377Z,26.60
2023-02-11T19:00:50.914Z,24.60
2023-02-11T19:02:54.071Z,24.80
2023-02-11T19:04:57.284Z,27.40
2023-02-11T19:07:03.641Z,26.07
2023-02-11T19:09:09.325Z,27.07
2023-02-11T19:11:12.433Z,26.50
2023-02-11T19:30:46.317Z,24.67
2023-02-11T19:32:54.779Z,25.70
2023-02-11T19:38:50.110Z,25.27
2023-02-11T19:41:38.944Z,29.07
2023-02-11T19:43:52.845Z,29.47
2023-02-11T19:46:01.881Z,25.07
2023-02-11T19:48:06.780Z,28.40
2023-02-11T19:50:12.860Z,28.00
2023-02-11T19:52:16.360Z,26.10
2023-02-11T19:54:20.580Z,27.70
2023-02-11T20:14:16.089Z,29.53
2023-02-11T20:17:05.811Z,29.80
2023-02-11T20:19:38.746Z,28.60
2023-02-11T20:23:04.728Z,30.30
2023-02-11T20:28:56.307Z,39.53
2023-02-11T20:31:07.357Z,29.97
2023-02-11T20:58:49.448Z,37.67
2023-02-11T21:01:17.756Z,31.90
2023-02-11T21:14:45.742Z,29.00
2023-02-11T21:21:32.768Z,29.23
2023-02-11T21:37:46.716Z,28.43
2023-02-11T21:47:30.254Z,29.00
2023-02-11T21:49:41.648Z,29.07
2023-02-11T21:51:54.700Z,28.63
2023-02-11T21:53:59.620Z,28.30
2023-02-11T21:56:10.107Z,32.13
2023-02-11T21:58:14.630Z,28.47
2023-02-11T22:00:18.925Z,28.17
2023-02-11T22:02:24.062Z,30.87
2023-02-11T22:04:27.400Z,30.37
2023-02-11T22:06:34.824Z,30.43
2023-02-11T22:08:38.319Z,31.63
2023-02-11T22:10:43.417Z,29.63
2023-02-11T22:12:46.776Z,31.97
2023-02-11T22:14:49.845Z,34.00
2023-02-11T22:16:52.990Z,31.67
2023-02-11T22:18:58.627Z,34.57
2023-02-11T22:21:03.287Z,35.57
2023-02-11T22:23:12.459Z,35.70
2023-02-11T22:25:27.215Z,36.33
2023-02-11T22:27:36.707Z,35.77
2023-02-11T22:29:43.083Z,36.17
2023-02-11T22:31:46.236Z,36.40
2023-02-11T22:33:49.347Z,34.90
2023-02-11T22:35:59.809Z,35.20
2023-02-11T22:38:02.721Z,34.07
2023-02-11T22:40:08.501Z,35.50
2023-02-11T22:42:11.411Z,35.87
2023-02-11T22:44:16.233Z,34.67
2023-02-11T22:46:20.620Z,33.17
2023-02-11T22:48:23.610Z,33.30
2023-02-11T22:50:26.692Z,33.23
2023-02-11T22:52:30.035Z,32.47
2023-02-11T22:54:33.783Z,33.60
2023-02-11T22:56:38.259Z,34.07
2023-02-11T22:58:41.697Z,34.77
2023-02-11T23:00:44.683Z,31.90
2023-02-11T23:02:47.637Z,33.37
2023-02-11T23:04:50.597Z,33.00
2023-02-11T23:06:53.431Z,34.30
2023-02-11T23:08:56.604Z,35.20
2023-02-11T23:11:05.593Z,32.00
2023-02-11T23:13:11.006Z,34.07
2023-02-11T23:15:15.969Z,32.80
2023-02-11T23:17:19.502Z,35.30
2023-02-11T23:19:22.329Z,35.07
2023-02-11T23:21:27.342Z,33.87
2023-02-11T23:23:30.250Z,34.57
2023-02-11T23:25:34.084Z,35.20
2023-02-11T23:27:36.842Z,35.60
2023-02-11T23:29:41.122Z,38.33
2023-02-11T23:31:46.467Z,35.43
2023-02-11T23:33:50.427Z,35.90
2023-02-11T23:35:53.833Z,36.80
2023-02-11T23:37:56.804Z,35.60
2023-02-11T23:39:59.690Z,35.97
2023-02-11T23:42:02.819Z,37.00
2023-02-11T23:44:06.019Z,36.13
2023-02-11T23:46:10.448Z,37.17
2023-02-11T23:48:13.303Z,36.53
2023-02-11T23:50:16.270Z,35.17
2023-02-11T23:52:19.385Z,35.47
2023-02-11T23:54:22.458Z,36.37
2023-02-11T23:56:27.470Z,36.63
2023-02-11T23:58:30.700Z,35.80
